PWSweather.com
Personal Weather Stations
Station Observations
PORTLG2
PortalegrePT

PortalegrePT

Lat: 39.2764932, Lon: -7.423681600000009

Elevation: 1312

Station Type: Davis Vantage Vue

Latest ConditionsUpdated 1:20:03 PM GMT Thursday, Nov 14, 2019
Currently Today's Max Today's Min Today's Average
Temperature 50.7°F10.4°C 51.0°F10.6°C 46.9°F8.3°C 49.0°F9.4°C
Dew Point 42.3°F5.7°C 49.4°F9.7°C 41.8°F5.4°C 46.0°F7.8°C
Winds 15.0 mph W24.1 kmh W 17.3 mph -27.8 kmh - - 10.0 mph 16.1 kmh
Wind Gusts 19.6 mph31.5 kmh 26.5 mph42.6 kmh - -
Humidity 73% 97% 73% 90%
Pressure 29.80 in1009.1 mb 29.99 in1015.6 mb 29.80 in1009.1 mb -
Precipitation - 0.09 in2.3 mm - -
Hour Temp Dew Point Humidity Winds Wind Gusts Pressure Precip Precip Rate Daily Precip Total
01:20 PM 50.7°F10.4°C 42.3°F5.7°C 73% 15.0 mph W24.1 kmh W 19.6 mph31.5 kmh 29.80 in1009.1 mb - 0.00 in0.0 mm 0.09 in2.3 mm
01:10 PM 50.8°F10.4°C 42.4°F5.8°C 73% 10.4 mph W16.7 kmh W 26.5 mph42.6 kmh 29.80 in1009.1 mb - 0.00 in0.0 mm 0.09 in2.3 mm
01:00 PM 51.0°F10.6°C 42.6°F5.9°C 73% 12.7 mph W20.4 kmh W 19.6 mph31.5 kmh 29.81 in1009.5 mb - 0.00 in0.0 mm 0.09 in2.3 mm
12:50 PM 50.4°F10.2°C 42.4°F5.8°C 74% 11.5 mph WNW18.5 kmh WNW 15.0 mph24.1 kmh 29.81 in1009.5 mb - 0.00 in0.0 mm 0.09 in2.3 mm
12:40 PM 50.5°F10.3°C 42.2°F5.7°C 73% 10.4 mph WNW16.7 kmh WNW 12.7 mph20.4 kmh 29.81 in1009.5 mb - 0.00 in0.0 mm 0.09 in2.3 mm
12:30 PM 50.6°F10.3°C 42.3°F5.7°C 73% 12.7 mph WNW20.4 kmh WNW 21.9 mph35.2 kmh 29.82 in1009.8 mb - 0.00 in0.0 mm 0.09 in2.3 mm
12:20 PM 50.4°F10.2°C 43.1°F6.2°C 76% 6.9 mph WNW11.1 kmh WNW 8.1 mph13.0 kmh 29.83 in1010.2 mb - 0.00 in0.0 mm 0.09 in2.3 mm
12:10 PM 49.8°F9.9°C 42.2°F5.7°C 75% 12.7 mph WNW20.4 kmh WNW 21.9 mph35.2 kmh 29.83 in1010.2 mb - 0.00 in0.0 mm 0.09 in2.3 mm
12:00 PM 49.1°F9.5°C 42.2°F5.7°C 77% 12.7 mph NW20.4 kmh NW 16.1 mph25.9 kmh 29.84 in1010.5 mb - 0.00 in0.0 mm 0.09 in2.3 mm
11:50 AM 48.3°F9.1°C 42.4°F5.8°C 80% 10.4 mph NW16.7 kmh NW 12.7 mph20.4 kmh 29.84 in1010.5 mb - 0.00 in0.0 mm 0.09 in2.3 mm
11:40 AM 48.1°F8.9°C 42.2°F5.7°C 80% 15.0 mph NW24.1 kmh NW 19.6 mph31.5 kmh 29.84 in1010.5 mb - 0.00 in0.0 mm 0.09 in2.3 mm
11:30 AM 48.1°F8.9°C 42.2°F5.7°C 80% 15.0 mph NW24.1 kmh NW 21.9 mph35.2 kmh 29.85 in1010.8 mb - 0.00 in0.0 mm 0.09 in2.3 mm
11:20 AM 49.4°F9.7°C 41.8°F5.4°C 75% 11.5 mph NW18.5 kmh NW 18.4 mph29.6 kmh 29.85 in1010.8 mb - 0.00 in0.0 mm 0.09 in2.3 mm
11:10 AM 49.4°F9.7°C 41.8°F5.4°C 75% 17.3 mph NW27.8 kmh NW 20.7 mph33.3 kmh 29.86 in1011.2 mb - 0.00 in0.0 mm 0.09 in2.3 mm
11:00 AM 49.0°F9.4°C 42.1°F5.6°C 77% 15.0 mph NW24.1 kmh NW 21.9 mph35.2 kmh 29.87 in1011.5 mb - 0.00 in0.0 mm 0.09 in2.3 mm
10:50 AM 48.9°F9.4°C 42.3°F5.7°C 78% 10.4 mph NW16.7 kmh NW 16.1 mph25.9 kmh 29.86 in1011.2 mb - 0.00 in0.0 mm 0.09 in2.3 mm
10:40 AM 48.7°F9.3°C 42.8°F6.0°C 80% 8.1 mph NW13.0 kmh NW 16.1 mph25.9 kmh 29.86 in1011.2 mb - 0.00 in0.0 mm 0.09 in2.3 mm
10:30 AM 48.4°F9.1°C 42.8°F6.0°C 81% 16.1 mph NW25.9 kmh NW 19.6 mph31.5 kmh 29.87 in1011.5 mb - 0.00 in0.0 mm 0.09 in2.3 mm
10:20 AM 48.5°F9.2°C 43.3°F6.3°C 82% 12.7 mph NW20.4 kmh NW 13.8 mph22.2 kmh 29.86 in1011.2 mb - 0.00 in0.0 mm 0.09 in2.3 mm
10:10 AM 48.5°F9.2°C 43.5°F6.4°C 83% 6.9 mph NW11.1 kmh NW 9.2 mph14.8 kmh 29.86 in1011.2 mb - 0.00 in0.0 mm 0.09 in2.3 mm
10:00 AM 48.4°F9.1°C 43.2°F6.2°C 82% 11.5 mph NW18.5 kmh NW 18.4 mph29.6 kmh 29.86 in1011.2 mb - 0.00 in0.0 mm 0.09 in2.3 mm
09:50 AM 48.2°F9.0°C 43.3°F6.3°C 83% 10.4 mph NW16.7 kmh NW 12.7 mph20.4 kmh 29.86 in1011.2 mb - 0.00 in0.0 mm 0.09 in2.3 mm
09:40 AM 47.8°F8.8°C 42.9°F6.1°C 83% 11.5 mph NW18.5 kmh NW 16.1 mph25.9 kmh 29.86 in1011.2 mb - 0.00 in0.0 mm 0.09 in2.3 mm
09:30 AM 47.4°F8.6°C 43.4°F6.3°C 86% 10.4 mph NW16.7 kmh NW 13.8 mph22.2 kmh 29.86 in1011.2 mb - 0.00 in0.0 mm 0.09 in2.3 mm
09:20 AM 47.2°F8.4°C 43.8°F6.6°C 88% 8.1 mph NW13.0 kmh NW 12.7 mph20.4 kmh 29.86 in1011.2 mb - 0.00 in0.0 mm 0.09 in2.3 mm
09:10 AM 47.1°F8.4°C 43.7°F6.5°C 88% 9.2 mph NW14.8 kmh NW 11.5 mph18.5 kmh 29.86 in1011.2 mb - 0.00 in0.0 mm 0.09 in2.3 mm
09:00 AM 47.1°F8.4°C 43.8°F6.6°C 88% 6.9 mph WNW11.1 kmh WNW 9.2 mph14.8 kmh 29.85 in1010.8 mb - 0.01 in0.3 mm 0.09 in2.3 mm
08:50 AM 46.9°F8.3°C 43.8°F6.6°C 89% 8.1 mph NW13.0 kmh NW 11.5 mph18.5 kmh 29.85 in1010.8 mb - 0.03 in0.8 mm 0.09 in2.3 mm
08:40 AM 47.1°F8.4°C 44.0°F6.7°C 89% 11.5 mph NW18.5 kmh NW 15.0 mph24.1 kmh 29.84 in1010.5 mb - 0.05 in1.3 mm 0.09 in2.3 mm
08:30 AM 47.4°F8.6°C 44.6°F7.0°C 90% 8.1 mph NW13.0 kmh NW 12.7 mph20.4 kmh 29.85 in1010.8 mb - 0.06 in1.5 mm 0.09 in2.3 mm
08:20 AM 47.5°F8.6°C 45.3°F7.4°C 92% 11.5 mph NW18.5 kmh NW 18.4 mph29.6 kmh 29.84 in1010.5 mb - 0.06 in1.5 mm 0.09 in2.3 mm
08:10 AM 47.7°F8.7°C 46.1°F7.8°C 94% 8.1 mph NW13.0 kmh NW 11.5 mph18.5 kmh 29.84 in1010.5 mb - 0.06 in1.5 mm 0.09 in2.3 mm
08:00 AM 47.9°F8.8°C 46.2°F7.9°C 94% 11.5 mph NW18.5 kmh NW 11.5 mph18.5 kmh 29.84 in1010.5 mb - 0.05 in1.3 mm 0.08 in2.0 mm
07:50 AM 48.2°F9.0°C 46.2°F7.9°C 93% 6.9 mph W11.1 kmh W 16.1 mph25.9 kmh 29.83 in1010.2 mb - 0.02 in0.5 mm 0.06 in1.5 mm
07:40 AM 48.6°F9.2°C 46.4°F8.0°C 92% 6.9 mph WNW11.1 kmh WNW 13.8 mph22.2 kmh 29.82 in1009.8 mb - 0.01 in0.3 mm 0.04 in1.0 mm
07:30 AM 48.8°F9.3°C 46.6°F8.1°C 92% 8.1 mph WNW13.0 kmh WNW 11.5 mph18.5 kmh 29.82 in1009.8 mb - 0.00 in0.0 mm 0.03 in0.8 mm
07:20 AM 48.9°F9.4°C 46.7°F8.2°C 92% 9.2 mph WNW14.8 kmh WNW 13.8 mph22.2 kmh 29.82 in1009.8 mb - 0.00 in0.0 mm 0.03 in0.8 mm
07:10 AM 49.0°F9.4°C 46.8°F8.2°C 92% 8.1 mph WNW13.0 kmh WNW 16.1 mph25.9 kmh 29.82 in1009.8 mb - 0.00 in0.0 mm 0.03 in0.8 mm
07:00 AM 49.1°F9.5°C 46.9°F8.3°C 92% 8.1 mph WNW13.0 kmh WNW 10.4 mph16.7 kmh 29.82 in1009.8 mb - 0.01 in0.3 mm 0.03 in0.8 mm
06:50 AM 49.4°F9.7°C 47.2°F8.4°C 92% 11.5 mph NW18.5 kmh NW 19.6 mph31.5 kmh 29.81 in1009.5 mb - 0.01 in0.3 mm 0.03 in0.8 mm
06:40 AM 49.5°F9.7°C 47.3°F8.5°C 92% 12.7 mph NW20.4 kmh NW 20.7 mph33.3 kmh 29.82 in1009.8 mb - 0.01 in0.3 mm 0.03 in0.8 mm
06:30 AM 49.7°F9.8°C 47.8°F8.8°C 93% 9.2 mph NW14.8 kmh NW 19.6 mph31.5 kmh 29.82 in1009.8 mb - 0.01 in0.3 mm 0.03 in0.8 mm
06:20 AM 49.7°F9.8°C 48.0°F8.9°C 94% 12.7 mph WNW20.4 kmh WNW 15.0 mph24.1 kmh 29.82 in1009.8 mb - 0.01 in0.3 mm 0.03 in0.8 mm
06:10 AM 49.7°F9.8°C 48.3°F9.1°C 95% 9.2 mph NW14.8 kmh NW 13.8 mph22.2 kmh 29.82 in1009.8 mb - 0.01 in0.3 mm 0.03 in0.8 mm
06:00 AM 49.8°F9.9°C 48.4°F9.1°C 95% 13.8 mph WNW22.2 kmh WNW 16.1 mph25.9 kmh 29.82 in1009.8 mb - 0.00 in0.0 mm 0.02 in0.5 mm
05:50 AM 49.9°F9.9°C 48.5°F9.2°C 95% 10.4 mph WNW16.7 kmh WNW 18.4 mph29.6 kmh 29.82 in1009.8 mb - 0.00 in0.0 mm 0.02 in0.5 mm
05:40 AM 50.0°F10.0°C 48.3°F9.1°C 94% 11.5 mph WSW18.5 kmh WSW 17.3 mph27.8 kmh 29.82 in1009.8 mb - 0.00 in0.0 mm 0.02 in0.5 mm
05:30 AM 50.0°F10.0°C 48.4°F9.1°C 94% 11.5 mph WSW18.5 kmh WSW 16.1 mph25.9 kmh 29.83 in1010.2 mb - 0.00 in0.0 mm 0.02 in0.5 mm
05:20 AM 50.0°F10.0°C 48.3°F9.1°C 94% 11.5 mph W18.5 kmh W 15.0 mph24.1 kmh 29.83 in1010.2 mb - 0.00 in0.0 mm 0.02 in0.5 mm
05:10 AM 50.0°F10.0°C 48.6°F9.2°C 95% 6.9 mph W11.1 kmh W 15.0 mph24.1 kmh 29.83 in1010.2 mb - 0.01 in0.3 mm 0.02 in0.5 mm
05:00 AM 49.9°F9.9°C 48.5°F9.2°C 95% 10.4 mph NW16.7 kmh NW 17.3 mph27.8 kmh 29.84 in1010.5 mb - 0.01 in0.3 mm 0.02 in0.5 mm
04:50 AM 49.9°F9.9°C 48.5°F9.2°C 95% 13.8 mph W22.2 kmh W 17.3 mph27.8 kmh 29.84 in1010.5 mb - 0.01 in0.3 mm 0.02 in0.5 mm
04:40 AM 49.9°F9.9°C 48.8°F9.3°C 96% 12.7 mph W20.4 kmh W 16.1 mph25.9 kmh 29.84 in1010.5 mb - 0.01 in0.3 mm 0.02 in0.5 mm
04:30 AM 49.9°F9.9°C 48.8°F9.3°C 96% 12.7 mph W20.4 kmh W 18.4 mph29.6 kmh 29.85 in1010.8 mb - 0.01 in0.3 mm 0.02 in0.5 mm
04:20 AM 49.9°F9.9°C 48.8°F9.3°C 96% 13.8 mph W22.2 kmh W 13.8 mph22.2 kmh 29.85 in1010.8 mb - 0.01 in0.3 mm 0.02 in0.5 mm
04:10 AM 50.2°F10.1°C 49.4°F9.7°C 97% 16.1 mph WNW25.9 kmh WNW 24.2 mph38.9 kmh 29.85 in1010.8 mb - 0.01 in0.3 mm 0.02 in0.5 mm
04:00 AM 50.1°F10.1°C 49.3°F9.6°C 97% 17.3 mph W27.8 kmh W 24.2 mph38.9 kmh 29.85 in1010.8 mb - 0.00 in0.0 mm 0.02 in0.5 mm
03:50 AM 50.0°F10.0°C 49.2°F9.6°C 97% 16.1 mph WSW25.9 kmh WSW 24.2 mph38.9 kmh 29.86 in1011.2 mb - 0.00 in0.0 mm 0.02 in0.5 mm
03:40 AM 49.8°F9.9°C 49.0°F9.4°C 97% 11.5 mph WSW18.5 kmh WSW 15.0 mph24.1 kmh 29.86 in1011.2 mb - 0.00 in0.0 mm 0.02 in0.5 mm
03:30 AM 49.6°F9.8°C 48.8°F9.3°C 97% 11.5 mph W18.5 kmh W 18.4 mph29.6 kmh 29.87 in1011.5 mb - 0.00 in0.0 mm 0.02 in0.5 mm
03:20 AM 49.5°F9.7°C 48.7°F9.3°C 97% 11.5 mph W18.5 kmh W 15.0 mph24.1 kmh 29.88 in1011.9 mb - 0.00 in0.0 mm 0.02 in0.5 mm
03:10 AM 49.4°F9.7°C 48.6°F9.2°C 97% 5.8 mph W9.3 kmh W 11.5 mph18.5 kmh 29.89 in1012.2 mb - 0.00 in0.0 mm 0.02 in0.5 mm
03:00 AM 49.4°F9.7°C 48.6°F9.2°C 97% 9.2 mph W14.8 kmh W 16.1 mph25.9 kmh 29.89 in1012.2 mb - 0.00 in0.0 mm 0.02 in0.5 mm
02:50 AM 49.4°F9.7°C 48.6°F9.2°C 97% 6.9 mph W11.1 kmh W 9.2 mph14.8 kmh 29.89 in1012.2 mb - 0.01 in0.3 mm 0.02 in0.5 mm
02:40 AM 49.2°F9.6°C 48.4°F9.1°C 97% 6.9 mph W11.1 kmh W 10.4 mph16.7 kmh 29.89 in1012.2 mb - 0.02 in0.5 mm 0.02 in0.5 mm
02:30 AM 49.2°F9.6°C 48.4°F9.1°C 97% 3.5 mph W5.6 kmh W 11.5 mph18.5 kmh 29.91 in1012.9 mb - 0.02 in0.5 mm 0.02 in0.5 mm
02:20 AM 49.0°F9.4°C 48.2°F9.0°C 97% 11.5 mph WNW18.5 kmh WNW 17.3 mph27.8 kmh 29.92 in1013.2 mb - 0.02 in0.5 mm 0.02 in0.5 mm
02:10 AM 48.7°F9.3°C 47.9°F8.8°C 97% 5.8 mph NW9.3 kmh NW 4.6 mph7.4 kmh 29.93 in1013.5 mb - 0.02 in0.5 mm 0.02 in0.5 mm
02:00 AM 48.5°F9.2°C 47.4°F8.6°C 96% 5.8 mph WNW9.3 kmh WNW 10.4 mph16.7 kmh 29.93 in1013.5 mb - 0.02 in0.5 mm 0.02 in0.5 mm
01:50 AM 48.4°F9.1°C 47.3°F8.5°C 96% 10.4 mph W16.7 kmh W 12.7 mph20.4 kmh 29.93 in1013.5 mb - 0.02 in0.5 mm 0.02 in0.5 mm
01:40 AM 48.4°F9.1°C 47.3°F8.5°C 96% 5.8 mph WSW9.3 kmh WSW 6.9 mph11.1 kmh 29.94 in1013.9 mb - 0.00 in0.0 mm 0.00 in0.0 mm
01:30 AM 48.4°F9.1°C 47.3°F8.5°C 96% 5.8 mph W9.3 kmh W 8.1 mph13.0 kmh 29.94 in1013.9 mb - 0.00 in0.0 mm 0.00 in0.0 mm
01:20 AM 48.4°F9.1°C 47.3°F8.5°C 96% 5.8 mph WNW9.3 kmh WNW 11.5 mph18.5 kmh 29.94 in1013.9 mb - 0.00 in0.0 mm 0.00 in0.0 mm
01:10 AM 48.5°F9.2°C 47.4°F8.6°C 96% 4.6 mph W7.4 kmh W 8.1 mph13.0 kmh 29.95 in1014.2 mb - 0.00 in0.0 mm 0.00 in0.0 mm
01:00 AM 48.6°F9.2°C 47.5°F8.6°C 96% 5.8 mph W9.3 kmh W 10.4 mph16.7 kmh 29.96 in1014.6 mb - 0.00 in0.0 mm 0.00 in0.0 mm
12:50 AM 48.8°F9.3°C 47.4°F8.6°C 95% 8.1 mph WNW13.0 kmh WNW 11.5 mph18.5 kmh 29.96 in1014.6 mb - 0.00 in0.0 mm 0.00 in0.0 mm
12:40 AM 48.8°F9.3°C 47.4°F8.6°C 95% 4.6 mph W7.4 kmh W 6.9 mph11.1 kmh 29.97 in1014.9 mb - 0.00 in0.0 mm 0.00 in0.0 mm
12:30 AM 48.7°F9.3°C 47.4°F8.6°C 95% 4.6 mph W7.4 kmh W 4.6 mph7.4 kmh 29.98 in1015.2 mb - 0.00 in0.0 mm 0.00 in0.0 mm
12:20 AM 48.7°F9.3°C 47.3°F8.5°C 95% 3.5 mph NW5.6 kmh NW 5.8 mph9.3 kmh 29.98 in1015.2 mb - 0.00 in0.0 mm 0.00 in0.0 mm
12:10 AM 48.7°F9.3°C 47.3°F8.5°C 95% 3.5 mph WNW5.6 kmh WNW 3.5 mph5.6 kmh 29.98 in1015.2 mb - 0.00 in0.0 mm 0.00 in0.0 mm
12:00 AM 48.5°F9.2°C 47.1°F8.4°C 95% 6.9 mph NW11.1 kmh NW 10.4 mph16.7 kmh 29.99 in1015.6 mb - 0.00 in0.0 mm 0.00 in0.0 mm